Weather at Benalla Airport

Public forecast

Using degrees Celsius for public forecast. Weather courtesy of forecast.io.

Closest aviation weather report (METAR) to Benalla Airport

Closest report is Wangaratta Airport, 16.6 nm (30.8 km) ENE. Retrieved 2020/10/30 16:00 UTC (36 minutes ago):

YWGT 301600Z AUTO 19002KT 9999 -SHRA OVC044 14/14 Q1009

Closest aviation forecast (TAF) to Benalla Airport

Forecast is more than 12 hours old.

Closest forecast is Wangaratta Airport, 16.6 nm (30.8 km) ENE. Retrieved 2020-10-30 02:39 UTC (14 hours ago):

TAF TAF YWGT 300136Z 3002/3014 12007KT 9999 -SHRA SCT050 FM300500 17010KT 9999 -SHRA SCT050 INTER 3002/3007 5000 SHRA SCT020 PROB30 INTER 3002/3007 2000 TSRA SCT015 FEW040CB